Le Grand, California
Current Conditions -  °F | °C
As of 4:53 AM on Tuesday 21 Oct 2014 (Local Time) from KMCE Reporting Station
Clear Clear  
Wind Chill: 56°   Ceiling: Unl
Heat Index: 56°   Visibility: 10mi
Dew Point: 50°   Wind: 10mph
Humidity: 80%   Direction: 320°NW
Pressure: 30.04"   Gusts: NA
Location:  37.23°N, 120.25°W
Report Text: KMCE 211153Z AUTO 32009KT 10SM CLR 13/10 A3004 RMK AO2 SLP170 T01330100 10183 20133 55007
Loading
Personal Weather Stations






























Interactive Weather Map
Tropical Storm Tracking
New forecast layout! Learn more

10-Day Weather Forecast

Advertisements
Track Severe Weather on mobile